Sierraville, California
Current Conditions -  °F | °C
As of 11:50 AM on Friday 31 Oct 2014 (Local Time) from KTRK Reporting Station
Scattered Clouds Scattered Clouds  
Wind Chill: 57°   Ceiling: Unl
Heat Index: 57°   Visibility: 10mi
Dew Point: 34°   Wind: 16mph
Humidity: 41%   Direction: 210°SSW
Pressure: 29.9"   Gusts: 30mph
Location:  39.59°N, 120.37°W
Report Text: KTRK 311850Z 21014G26KT 10SM SCT050 14/01 A2990 RMK NOSPECI
Loading
Personal Weather Stations






























Interactive Weather Map
Tropical Storm Tracking
New forecast layout! Learn more

10-Day Weather Forecast

Advertisements
Track Severe Weather on mobile